AirNav   Textron
 
 975 users online  

CL35 Warner Springs Gliderport
Warner Springs, California, USA

GOING TO WARNER SPRINGS?


FAA INFORMATION EFFECTIVE 12 OCTOBER 2017

Location

FAA Identifier: CL35
Lat/Long: 33-17-04.2100N / 116-40-10.7650W
33-17.070167N / 116-40.179417W
33.2845028 / -116.6696569
(estimated)
Elevation: 2880 ft. / 878 m (estimated)
Variation: 13E (1985)
From city: 2 miles E of WARNER SPRINGS, CA
Time zone: UTC -7 (UTC -8 during Standard Time)
Zip code: 92086

Gliderport Operations

Gliderport use: Private use. Permission required prior to landing
Activation date: 10/1984
Control tower: no
ARTCC: LOS ANGELES CENTER
FSS: SAN DIEGO FLIGHT SERVICE STATION
Attendance: 0900-1700
Wind indicator: yes
Segmented circle: yes
Landing fee: yes

Gliderport Communications

UNICOM: 122.8
WX AWOS-1 at L08 (18 nm E): 126.575 (760-767-3308)
WX ASOS at RNM (19 nm SW): 132.025 (760-789-0736)

Nearby radio navigation aids

VOR radial/distance  VOR name  Freq  Var
JLIr319/9.6JULIAN VORTAC114.0015E
TRMr218/32.8THERMAL VORTAC116.2013E
PSPr186/37.1PALM SPRINGS VORTAC115.5013E
OCNr071/37.6OCEANSIDE VORTAC115.3015E
HDFr125/(39.2)HOMELAND VOR113.4014E

Gliderport Services

Runway Information

Runway 8/26

Dimensions: 3500 x 70 ft. / 1067 x 21 m
Surface: asphalt
RUNWAY 8  RUNWAY 26
Latitude: 33-17.060333N33-17.080000N
Longitude: 116-40.522667W116-39.836167W
Elevation: 2873.0 ft.2914.0 ft.
Traffic pattern: leftleft
Obstructions: none200 ft. hill, 5200 ft. from runway

Gliderport Ownership and Management from official FAA records

Ownership: Privately-owned
Owner: WARNER SPRINGS RANCH RESORT, LLC
31930 HWY 79
WARNER SPRINGS, CA 92086
Phone 760-782-4200
SKY SAILING 31930 HWY 79.
Manager: BRET WILLAT
SKY SAILING 31930 HWY 79
WARNER SPRINGS, CA 92086
Phone 760-782-0404
LEASEE.

Gliderport Operational Statistics

Aircraft based on the field: 80
Single engine airplanes: 10
Gliders airplanes: 70
    

Instrument Procedures

There are no published instrument procedures at CL35.

Some nearby airports with instrument procedures:

L08 - Borrego Valley Airport (18 nm E)
KRNM - Ramona Airport (19 nm SW)
F70 - French Valley Airport (29 nm NW)
L18 - Fallbrook Community Airpark (29 nm W)
KSEE - Gillespie Field Airport (31 nm SW)
 
Loc | Ops | Rwys | IFR | FBO | Links
Com | Nav | Svcs | Stats | Notes


 
Area around CL35 (Warner Springs Gliderport)
 
Road maps at: MapQuest Bing Google
 
Aerial photo
WARNING: Photo may not be current or correct
Aerial photo of CL35 (Warner Springs Gliderport)
Photo by Steve Lupinacci
Photo taken 27-May-2008

Do you have a better or more recent aerial photo of Warner Springs Gliderport that you would like to share? If so, please send us your photo.

 
Sectional chart

 
Airport distance calculator
Flying to Warner Springs Gliderport? Find the distance to fly.

From to CL35

Sunrise and sunset
Times for 22-Oct-2017
 Local
(UTC-7)
 Zulu
(UTC)
Morning civil twilight06:3313:33
Sunrise06:5813:58
Sunset18:0501:05
Evening civil twilight18:3001:30

Current date and time
Zulu (UTC)  22-Oct-2017 20:49:30
Local (UTC-7)  22-Oct-2017 13:49:30
 
METAR
KRNM 
20nm SW 
221953Z 11007KT 10SM CLR 33/M08 A3013 RMK AO2 SLP184 T03331078 $
KF70 
29nm NW 
222035Z AUTO 36003KT 10SM CLR 33/M04 A3011 RMK AO1
KL18 
29nm W 
222035Z AUTO 23007KT 190V260 10SM CLR 33/02 A3008 RMK AO2
KSEE 
32nm SW 
221947Z 00000KT 10SM SKC 31/M03 A3008
KCRQ 
32nm W 
221953Z AUTO 24008KT 10SM CLR 26/09 A3009 RMK AO2 SLP186 T02610089
KTRM 
33nm NE 
221952Z AUTO 14004KT 10SM CLR 33/M06 A3011 RMK AO2 SLP199 T03281056
KPSP 
33nm N 
221953Z 16005KT 10SM CLR 33/M08 A3016 RMK AO2 SLP212 T03331083
KNFG 
33nm W 
221957Z 21008KT 10SM FEW030 31/03 A3007 RMK AO2 SLP180 T03060028
KNKX 
34nm SW 
221955Z VRB05KT 10SM CLR 34/M02 A3009 RMK AO2 SLP183 T03441022 $
KOKB 
34nm W 
221952Z AUTO 22007KT 10SM CLR 27/10 A3007 RMK AO2 SLP183 T02720100
TAF
KCRQ 
32nm W 
221734Z 2218/2318 VRB05KT P6SM SKC FM230800 VRB05KT P6SM SKC WS015/08020KT
KTRM 
33nm NE 
221734Z 2218/2318 VRB05KT P6SM SKC
KPSP 
33nm N 
221734Z 2218/2318 VRB05KT P6SM SKC
KNFG 
33nm W 
2215/2315 VRB05KT 9999 SKC QNH3004INS FM221830 04008KT 9999 SKC QNH3008INS BECMG 2220/2222 23008KT 9999 FEW150 QNH3003INS BECMG 2303/2305 VRB05KT 9999 SKC QNH3003INS AUTOMATED SENSOR METWATCH 2215 TIL 2314 T29/2221Z T10/2314Z COR 1650
KNKX 
34nm SW 
2215/2315 05008KT 99999 FEW150 QNH3006INS BECMG 2218/2220 31010KT 9999 FEW150 QNH2999INS BECMG 2303/2305 VRB05KT 9999 SKC QNH3002INS FM231030 05008KT 9999 SKC QNH3001INS T31/2221Z T13/2314Z COR 1650
NOTAMs
Click for the latest NOTAMs
NOTAMs are issued by the DoD/FAA and will open in a separate window not controlled by AirNav.

 

 
 

Would you like to see your business listed on this page?

 If your business provides an interesting product or service to pilots, flight crews, aircraft, or users of the Warner Springs Gliderport, you should consider listing it here.  To start the listing process, click on the button below
 
Add a business
 

Other Pages about Warner Springs Gliderport

www.agcsc.org/warner_springs_info.html
 
Update a link
 
Copyright © AirNav, LLC. All rights reserved. Privacy Policy  Contact